Time;durP1;ratioP1;P1;durP2;ratioP2;P2;SDS_P1;SDS_P2;PMS_P1;PMS_P2;Temp;Humidity;BMP_temperature;BMP_pressure;BME280_temperature;BME280_humidity;BME280_pressure;Samples;Min_cycle;Max_cycle;Signal;HPM_P1;HPM_P2
2022/08/26 00:03:04;;;;;;;35.65;25.02;;;24.20;56.40;;;;;;9176456;19;20026;-69
2022/08/26 00:06:11;;;;;;;38.10;25.30;;;24.20;56.50;;;;;;9175620;19;20030;-67
2022/08/26 00:09:16;;;;;;;46.03;27.40;;;24.20;56.70;;;;;;9175100;19;20018;-67
2022/08/26 00:12:22;;;;;;;41.63;28.98;;;24.10;56.80;;;;;;9175426;19;20006;-68
2022/08/26 00:15:43;;;;;;;40.03;30.15;;;24.10;57.00;;;;;;9176089;19;20082;-68
2022/08/26 00:18:48;;;;;;;43.92;30.75;;;24.10;57.20;;;;;;9177501;19;20471;-69
2022/08/26 00:21:53;;;;;;;43.30;29.95;;;24.10;57.30;;;;;;9183769;19;20064;-69
2022/08/26 00:24:59;;;;;;;50.75;33.67;;;24.00;57.50;;;;;;9183153;19;20014;-68
2022/08/26 00:28:05;;;;;;;47.22;34.50;;;24.00;57.60;;;;;;9180373;19;20133;-67
2022/08/26 00:31:13;;;;;;;49.38;35.13;;;23.90;57.80;;;;;;9184165;19;20019;-68
2022/08/26 00:34:18;;;;;;;47.78;34.90;;;23.90;58.00;;;;;;9183887;19;21287;-68
2022/08/26 00:37:24;;;;;;;55.88;37.92;;;23.80;58.00;;;;;;9183417;19;20464;-71
2022/08/26 00:40:32;;;;;;;52.10;37.30;;;23.80;58.20;;;;;;9181557;19;20014;-69
2022/08/26 00:43:38;;;;;;;60.25;40.28;;;23.70;58.40;;;;;;9182681;19;20018;-68
2022/08/26 00:46:58;;;;;;;56.30;36.33;;;23.70;58.60;;;;;;9183194;19;20475;-69
2022/08/26 00:50:07;;;;;;;58.20;39.33;;;23.70;58.80;;;;;;9183630;19;20010;-71
2022/08/26 00:53:22;;;;;;;54.60;38.92;;;23.60;58.90;;;;;;9181965;19;20028;-69
2022/08/26 00:56:36;;;;;;;61.15;40.95;;;23.60;58.90;;;;;;9183477;19;20468;-68
2022/08/26 00:59:42;;;;;;;61.20;41.42;;;23.60;59.20;;;;;;9180359;19;20029;-68
2022/08/26 01:02:51;;;;;;;62.08;40.25;;;23.50;59.20;;;;;;9181220;19;20064;-68
2022/08/26 01:05:59;;;;;;;59.53;41.08;;;23.40;59.50;;;;;;9181063;19;20020;-68
2022/08/26 01:09:04;;;;;;;71.00;41.50;;;23.40;59.60;;;;;;9182695;19;20022;-68
2022/08/26 01:12:09;;;;;;;64.40;42.58;;;23.40;59.70;;;;;;9183080;19;20559;-68
2022/08/26 01:15:20;;;;;;;57.17;41.97;;;23.30;59.90;;;;;;9182521;19;20029;-68
2022/08/26 01:18:28;;;;;;;61.03;41.03;;;23.30;60.20;;;;;;9181512;19;20018;-68
2022/08/26 01:21:38;;;;;;;60.38;39.53;;;23.20;60.30;;;;;;9180711;19;20022;-68
2022/08/26 01:24:48;;;;;;;57.80;40.08;;;23.20;60.50;;;;;;9182699;19;20399;-68
2022/08/26 01:27:56;;;;;;;60.42;41.20;;;23.20;60.80;;;;;;9178336;19;20688;-68
2022/08/26 01:31:03;;;;;;;67.13;40.90;;;23.10;60.90;;;;;;9180564;19;20026;-69
2022/08/26 01:34:15;;;;;;;57.08;40.20;;;23.10;61.00;;;;;;9181528;19;20929;-68
2022/08/26 01:37:24;;;;;;;56.35;40.05;;;23.10;61.40;;;;;;9181642;19;20026;-68
2022/08/26 01:40:37;;;;;;;64.63;40.63;;;23.00;61.50;;;;;;9176061;19;20010;-68
2022/08/26 01:43:44;;;;;;;61.13;40.47;;;22.90;61.90;;;;;;9181537;19;20019;-69
2022/08/26 01:46:51;;;;;;;56.60;39.20;;;22.90;61.90;;;;;;9181484;19;20011;-68
2022/08/26 01:49:59;;;;;;;60.42;41.17;;;22.90;62.10;;;;;;9178609;19;20011;-68
2022/08/26 01:53:08;;;;;;;54.72;39.10;;;22.80;62.20;;;;;;9181202;19;20826;-67
2022/08/26 01:56:18;;;;;;;60.50;40.38;;;22.80;62.50;;;;;;9180681;19;20029;-67
2022/08/26 01:59:25;;;;;;;62.25;40.45;;;22.80;62.70;;;;;;9178811;19;20694;-67
2022/08/26 02:02:31;;;;;;;57.58;38.80;;;22.70;62.80;;;;;;9178430;19;20029;-68
2022/08/26 02:05:36;;;;;;;63.08;41.08;;;22.70;63.00;;;;;;9180415;19;20364;-67
2022/08/26 02:08:43;;;;;;;63.42;40.10;;;22.70;63.10;;;;;;9180861;19;20033;-68
2022/08/26 02:11:51;;;;;;;72.28;39.50;;;22.70;63.30;;;;;;9179491;19;20018;-67
2022/08/26 02:15:00;;;;;;;58.20;38.80;;;22.70;63.50;;;;;;9179683;19;20024;-67
2022/08/26 02:18:11;;;;;;;62.47;39.55;;;22.70;63.70;;;;;;9179980;19;20676;-68
2022/08/26 02:21:18;;;;;;;64.25;40.15;;;22.70;63.70;;;;;;9179806;19;20037;-69
2022/08/26 02:24:26;;;;;;;61.40;36.30;;;22.70;63.80;;;;;;9180940;19;20486;-70
2022/08/26 02:27:36;;;;;;;64.85;39.22;;;22.70;64.00;;;;;;9173917;19;20056;-68
2022/08/26 02:30:42;;;;;;;55.03;36.88;;;22.60;64.30;;;;;;9180682;19;20018;-69
2022/08/26 02:33:47;;;;;;;57.70;36.60;;;22.60;64.30;;;;;;9179025;19;20018;-69
2022/08/26 02:36:53;;;;;;;60.20;36.45;;;22.60;64.40;;;;;;9179061;19;20082;-69
2022/08/26 02:39:58;;;;;;;59.80;36.13;;;22.60;64.50;;;;;;9178505;19;20033;-69
2022/08/26 02:43:06;;;;;;;60.50;35.72;;;22.60;64.60;;;;;;9176142;19;20070;-69
2022/08/26 02:46:12;;;;;;;51.20;33.83;;;22.60;64.90;;;;;;9175349;19;20023;-69
2022/08/26 02:49:26;;;;;;;55.40;34.17;;;22.50;64.90;;;;;;9179320;19;20476;-69
2022/08/26 02:52:31;;;;;;;51.70;34.05;;;22.50;65.00;;;;;;9177315;19;20022;-68
2022/08/26 02:55:36;;;;;;;50.35;30.85;;;22.50;65.10;;;;;;9178518;19;20501;-68
2022/08/26 02:58:44;;;;;;;59.20;31.83;;;22.50;65.20;;;;;;9178165;19;20019;-69
2022/08/26 03:01:50;;;;;;;49.20;30.42;;;22.50;65.50;;;;;;9178540;19;20471;-69
2022/08/26 03:04:55;;;;;;;43.00;29.00;;;22.50;65.50;;;;;;9178038;19;20019;-69
2022/08/26 03:08:10;;;;;;;54.13;31.52;;;22.40;65.60;;;;;;9178302;19;20860;-69
2022/08/26 03:11:15;;;;;;;49.13;30.13;;;22.40;65.60;;;;;;9177810;19;20834;-69
2022/08/26 03:14:24;;;;;;;45.90;29.17;;;22.40;65.70;;;;;;9177699;19;20404;-69
2022/08/26 03:17:31;;;;;;;47.90;26.75;;;22.40;65.90;;;;;;9177421;19;20133;-68
2022/08/26 03:20:39;;;;;;;46.35;27.80;;;22.40;65.90;;;;;;9176907;19;20409;-69
2022/08/26 03:23:46;;;;;;;40.38;24.67;;;22.40;66.00;;;;;;9178670;19;20487;-68
2022/08/26 03:26:51;;;;;;;46.35;24.75;;;22.40;66.10;;;;;;9174946;19;20496;-69
2022/08/26 03:33:19;;;;;;;42.90;24.52;;;22.40;66.40;;;;;;9177859;19;20019;-68
2022/08/26 03:36:24;;;;;;;40.65;24.98;;;22.40;66.30;;;;;;9176266;19;20011;-68
2022/08/26 03:39:30;;;;;;;41.30;23.35;;;22.40;66.30;;;;;;9176806;19;20021;-68
2022/08/26 03:42:37;;;;;;;34.58;22.38;;;22.40;66.40;;;;;;9174797;19;20022;-67
2022/08/26 03:45:45;;;;;;;39.10;22.17;;;22.40;66.50;;;;;;9177275;19;20026;-67
2022/08/26 03:48:50;;;;;;;40.10;23.55;;;22.40;66.70;;;;;;9176959;19;20018;-68
2022/08/26 03:51:55;;;;;;;40.33;22.88;;;22.40;66.60;;;;;;9176888;19;20022;-69
2022/08/26 03:55:01;;;;;;;32.15;20.70;;;22.30;66.70;;;;;;9184778;19;20019;-67
2022/08/26 03:58:06;;;;;;;34.42;20.80;;;22.30;66.70;;;;;;9186535;19;20015;-68
2022/08/26 04:01:15;;;;;;;32.47;20.08;;;22.30;66.90;;;;;;9183872;19;20018;-67
2022/08/26 04:04:22;;;;;;;36.17;20.42;;;22.30;67.00;;;;;;9187569;19;20019;-69
2022/08/26 04:07:28;;;;;;;38.67;20.95;;;22.30;67.00;;;;;;9186113;19;20014;-68
2022/08/26 04:10:36;;;;;;;33.42;21.02;;;22.30;67.00;;;;;;9186975;19;20010;-69
2022/08/26 04:13:42;;;;;;;38.03;20.90;;;22.30;67.10;;;;;;9184217;19;20121;-68
2022/08/26 04:16:50;;;;;;;30.77;18.75;;;22.30;67.20;;;;;;9186308;19;20014;-68
2022/08/26 04:19:55;;;;;;;39.72;21.17;;;22.30;67.30;;;;;;9185017;19;20007;-68
2022/08/26 04:23:00;;;;;;;36.90;19.35;;;22.30;67.30;;;;;;9182815;19;20041;-69
2022/08/26 04:26:06;;;;;;;32.20;18.83;;;22.20;67.30;;;;;;9183598;19;20015;-69
2022/08/26 04:29:14;;;;;;;43.28;18.83;;;22.20;67.40;;;;;;9178184;19;20014;-67
2022/08/26 04:32:22;;;;;;;34.83;19.00;;;22.30;67.60;;;;;;9184902;19;20026;-68
2022/08/26 04:35:27;;;;;;;36.45;18.27;;;22.30;67.60;;;;;;9185883;19;20010;-68
2022/08/26 04:38:34;;;;;;;32.35;17.38;;;22.30;67.70;;;;;;9183118;19;20026;-66
2022/08/26 04:41:39;;;;;;;33.90;17.73;;;22.30;67.70;;;;;;9181731;19;20468;-69
2022/08/26 04:44:44;;;;;;;33.17;17.17;;;22.30;67.70;;;;;;9183554;19;20022;-69
2022/08/26 04:47:55;;;;;;;28.77;14.63;;;22.30;67.80;;;;;;9184913;19;20363;-69
2022/08/26 04:51:01;;;;;;;33.60;16.13;;;22.30;67.90;;;;;;9183400;19;20014;-68
2022/08/26 04:54:08;;;;;;;26.00;15.77;;;22.30;67.80;;;;;;9184054;19;20014;-67
2022/08/26 04:57:13;;;;;;;25.65;14.98;;;22.30;67.80;;;;;;9183076;19;20090;-67
2022/08/26 05:00:20;;;;;;;28.65;15.88;;;22.20;67.80;;;;;;9181658;19;20018;-67
2022/08/26 05:03:29;;;;;;;34.03;16.15;;;22.20;67.80;;;;;;9180940;19;20454;-67
2022/08/26 05:06:34;;;;;;;38.25;16.05;;;22.20;68.00;;;;;;9181261;19;20018;-68
2022/08/26 05:09:42;;;;;;;33.35;17.08;;;22.20;67.90;;;;;;9183096;19;20048;-66
2022/08/26 05:12:47;;;;;;;27.85;16.20;;;22.10;68.00;;;;;;9182274;19;20026;-65
2022/08/26 05:15:53;;;;;;;31.50;16.63;;;22.10;68.10;;;;;;9183156;19;20708;-66
2022/08/26 05:19:06;;;;;;;28.25;15.88;;;22.10;68.10;;;;;;9182568;19;20010;-66
2022/08/26 05:22:12;;;;;;;30.25;16.65;;;22.10;68.30;;;;;;9179262;19;20033;-66
2022/08/26 05:25:18;;;;;;;28.73;16.05;;;22.10;68.20;;;;;;9181880;19;20056;-67
2022/08/26 05:28:24;;;;;;;30.52;17.55;;;22.10;68.20;;;;;;9179130;19;20010;-68
2022/08/26 05:31:31;;;;;;;37.38;18.33;;;22.20;68.40;;;;;;9180572;19;20372;-68
2022/08/26 05:34:39;;;;;;;31.40;17.65;;;22.20;68.40;;;;;;9178952;19;20511;-65
2022/08/26 05:37:46;;;;;;;42.25;19.30;;;22.20;68.50;;;;;;9180937;19;20018;-67
2022/08/26 05:40:53;;;;;;;33.08;19.05;;;22.20;68.50;;;;;;9178995;19;20025;-68
2022/08/26 05:43:59;;;;;;;34.55;20.25;;;22.20;68.50;;;;;;9181479;19;20044;-69
2022/08/26 05:47:06;;;;;;;34.83;17.85;;;22.20;68.50;;;;;;9178303;19;20025;-67
2022/08/26 05:50:15;;;;;;;32.03;18.05;;;22.20;68.60;;;;;;9181805;19;20057;-68
2022/08/26 05:53:22;;;;;;;35.53;17.67;;;22.20;68.70;;;;;;9180550;19;20014;-68
2022/08/26 05:56:30;;;;;;;36.58;18.25;;;22.20;68.70;;;;;;9180660;19;20025;-67
2022/08/26 05:59:35;;;;;;;33.03;17.52;;;22.20;68.70;;;;;;9180472;19;20018;-68
2022/08/26 06:02:42;;;;;;;31.58;17.70;;;22.20;68.70;;;;;;9180179;19;20356;-66
2022/08/26 06:05:55;;;;;;;37.13;16.88;;;22.30;68.80;;;;;;9178944;19;20564;-68
2022/08/26 06:09:01;;;;;;;33.00;17.60;;;22.30;68.90;;;;;;9181515;19;20093;-67
2022/08/26 06:12:07;;;;;;;32.80;15.88;;;22.30;68.80;;;;;;9178728;19;20022;-66
2022/08/26 06:15:13;;;;;;;32.30;15.05;;;22.40;68.80;;;;;;9182340;19;20487;-67
2022/08/26 06:18:22;;;;;;;25.98;14.82;;;22.40;68.80;;;;;;9180168;19;20047;-67
2022/08/26 06:21:32;;;;;;;29.15;14.55;;;22.40;68.80;;;;;;9179830;19;20018;-67
2022/08/26 06:28:04;;;;;;;58.67;17.05;;;22.50;68.80;;;;;;9172550;19;20026;-67
2022/08/26 06:31:09;;;;;;;24.50;13.63;;;22.50;68.80;;;;;;9178560;19;20018;-67
2022/08/26 06:34:14;;;;;;;42.78;15.00;;;22.50;68.70;;;;;;9179028;19;20017;-67
2022/08/26 06:37:22;;;;;;;27.88;12.38;;;22.50;68.70;;;;;;9178663;19;20010;-67
2022/08/26 06:40:28;;;;;;;29.90;13.02;;;22.60;68.80;;;;;;9168651;19;20916;-67
2022/08/26 06:43:32;;;;;;;27.52;13.85;;;22.60;68.80;;;;;;9172807;19;20030;-68
2022/08/26 06:46:38;;;;;;;27.20;12.70;;;22.60;68.80;;;;;;9174572;19;20060;-67
2022/08/26 06:49:43;;;;;;;25.80;12.40;;;22.70;68.80;;;;;;9172590;19;20097;-69
2022/08/26 06:52:51;;;;;;;32.17;11.95;;;22.70;68.90;;;;;;9172626;19;20022;-68
2022/08/26 06:55:58;;;;;;;38.03;13.65;;;22.70;68.80;;;;;;9175816;19;20018;-69
2022/08/26 06:59:04;;;;;;;25.08;10.98;;;22.70;68.70;;;;;;9175675;19;20034;-69
2022/08/26 07:02:11;;;;;;;23.27;10.40;;;22.80;68.80;;;;;;9176327;19;20022;-69
2022/08/26 07:05:17;;;;;;;20.20;10.52;;;22.90;68.70;;;;;;9179087;19;20365;-68
2022/08/26 07:08:26;;;;;;;24.92;9.77;;;23.00;68.70;;;;;;9174327;19;20019;-70
2022/08/26 07:11:31;;;;;;;19.75;9.15;;;23.00;68.70;;;;;;9172965;19;20486;-70
2022/08/26 07:14:36;;;;;;;22.25;8.75;;;23.10;68.60;;;;;;9175330;19;20014;-71
2022/08/26 07:17:42;;;;;;;17.80;7.85;;;23.10;68.60;;;;;;9172244;19;20090;-70
2022/08/26 07:20:47;;;;;;;21.52;7.60;;;23.10;68.60;;;;;;9178892;19;20022;-71
2022/08/26 07:23:55;;;;;;;22.52;7.68;;;23.10;68.40;;;;;;9180242;19;20030;-71
2022/08/26 07:27:07;;;;;;;24.73;7.47;;;23.20;68.40;;;;;;9172345;19;20444;-70
2022/08/26 07:30:13;;;;;;;15.32;6.60;;;23.20;68.40;;;;;;9180335;19;20020;-69
2022/08/26 07:33:19;;;;;;;13.88;5.80;;;23.20;68.30;;;;;;9178649;19;20111;-69
2022/08/26 07:36:27;;;;;;;14.27;5.18;;;23.20;68.30;;;;;;9177610;19;20023;-69
2022/08/26 07:39:34;;;;;;;11.88;5.93;;;23.20;68.30;;;;;;9177529;19;20021;-69
2022/08/26 07:42:41;;;;;;;17.15;5.28;;;23.20;68.30;;;;;;9176454;19;20018;-70
2022/08/26 07:45:46;;;;;;;13.30;5.80;;;23.20;68.20;;;;;;9177303;19;20081;-66
2022/08/26 07:48:53;;;;;;;19.05;5.80;;;23.20;68.30;;;;;;9176373;19;20451;-69
2022/08/26 07:51:59;;;;;;;15.30;4.80;;;23.20;68.30;;;;;;9170173;19;20018;-70
2022/08/26 07:55:10;;;;;;;13.38;4.70;;;23.30;68.30;;;;;;9164527;19;20046;-69
2022/08/26 07:58:15;;;;;;;20.92;5.00;;;23.30;69.00;;;;;;9168971;19;20029;-68
2022/08/26 08:01:22;;;;;;;16.52;4.40;;;23.40;68.30;;;;;;9170729;19;20019;-68
2022/08/26 08:04:28;;;;;;;14.70;4.38;;;23.50;68.30;;;;;;9173488;19;20026;-69
2022/08/26 08:07:33;;;;;;;17.38;4.25;;;23.50;68.20;;;;;;9176950;19;20006;-70
2022/08/26 08:10:51;;;;;;;19.05;4.15;;;23.60;68.10;;;;;;9176141;19;20019;-69
2022/08/26 08:13:59;;;;;;;14.35;4.00;;;23.70;68.00;;;;;;9174569;19;20324;-69
2022/08/26 08:17:04;;;;;;;17.92;4.20;;;23.70;67.90;;;;;;9176251;19;20012;-70
2022/08/26 08:20:12;;;;;;;13.52;4.28;;;23.80;67.70;;;;;;9173216;19;20130;-71
2022/08/26 08:23:18;;;;;;;13.25;4.20;;;23.80;67.70;;;;;;9168728;19;20022;-69
2022/08/26 08:26:27;;;;;;;15.15;3.90;;;23.90;67.70;;;;;;9171079;19;20019;-69
2022/08/26 08:29:32;;;;;;;8.95;3.50;;;23.90;67.70;;;;;;9167729;19;20019;-67
2022/08/26 08:32:40;;;;;;;10.65;3.42;;;24.00;67.60;;;;;;9164380;19;20018;-67
2022/08/26 08:35:45;;;;;;;12.90;3.90;;;24.00;67.50;;;;;;9167777;19;20021;-70
2022/08/26 08:38:50;;;;;;;18.67;3.30;;;24.00;67.50;;;;;;9172705;19;20026;-69
2022/08/26 08:42:14;;;;;;;15.45;3.85;;;24.10;67.50;;;;;;9173289;19;20022;-69
2022/08/26 08:45:24;;;;;;;12.93;3.72;;;24.20;67.60;;;;;;9173509;19;20021;-69
2022/08/26 08:48:34;;;;;;;13.40;3.15;;;24.20;67.30;;;;;;9176546;19;20030;-68
2022/08/26 08:51:45;;;;;;;14.82;3.67;;;24.30;67.30;;;;;;9169980;19;20019;-68
2022/08/26 08:54:50;;;;;;;9.95;3.72;;;24.30;67.20;;;;;;9174143;19;20369;-69
2022/08/26 08:58:05;;;;;;;18.70;4.45;;;24.40;67.10;;;;;;9164360;19;20466;-70
2022/08/26 09:01:19;;;;;;;13.65;3.70;;;24.40;67.10;;;;;;9175111;19;20022;-70
2022/08/26 09:04:40;;;;;;;20.40;4.17;;;24.50;67.00;;;;;;9185537;19;20010;-71
2022/08/26 09:07:47;;;;;;;13.40;3.13;;;24.50;66.80;;;;;;9184696;19;20019;-70
2022/08/26 09:10:54;;;;;;;12.68;3.22;;;24.60;66.80;;;;;;9184082;19;20015;-70
2022/08/26 09:14:04;;;;;;;13.77;2.83;;;24.60;66.70;;;;;;9182194;19;20018;-69
2022/08/26 09:17:18;;;;;;;11.57;2.83;;;24.60;66.70;;;;;;9178785;19;20014;-70
2022/08/26 09:20:26;;;;;;;;;;;24.70;66.70;;;;;;9179981;19;20029;-69
2022/08/26 09:23:32;;;;;;;14.02;3.33;;;24.70;66.60;;;;;;9181455;19;20544;-70
2022/08/26 09:26:48;;;;;;;7.10;3.10;;;24.80;66.50;;;;;;9171006;19;20018;-68
2022/08/26 09:30:01;;;;;;;10.10;2.97;;;24.70;66.50;;;;;;9171131;19;20015;-69
2022/08/26 09:33:09;;;;;;;11.18;2.80;;;24.70;66.40;;;;;;9166803;19;20278;-69
2022/08/26 09:36:21;;;;;;;16.77;3.40;;;24.70;66.40;;;;;;9176240;19;20018;-70
2022/08/26 09:39:33;;;;;;;16.70;3.33;;;24.70;66.30;;;;;;9176639;19;20022;-68
2022/08/26 09:42:41;;;;;;;16.70;3.75;;;24.70;66.30;;;;;;9177183;19;20028;-68
2022/08/26 09:45:53;;;;;;;13.85;3.35;;;24.70;66.30;;;;;;9176679;19;20019;-67
2022/08/26 09:49:33;;;;;;;15.63;3.80;;;24.60;66.30;;;;;;9181581;19;20029;-68
2022/08/26 09:52:40;;;;;;;15.13;3.60;;;24.60;66.50;;;;;;9181169;19;20359;-69
2022/08/26 09:55:48;;;;;;;13.95;3.58;;;24.60;66.30;;;;;;9180244;19;20018;-68
2022/08/26 09:58:54;;;;;;;15.38;3.78;;;24.60;66.30;;;;;;9180315;19;20038;-67
2022/08/26 10:02:20;;;;;;;10.18;3.25;;;24.60;66.30;;;;;;9182499;19;20018;-69
2022/08/26 10:05:32;;;;;;;7.68;2.88;;;24.60;66.40;;;;;;9177273;19;20471;-67
2022/08/26 10:08:40;;;;;;;10.82;3.03;;;24.60;66.30;;;;;;9175876;19;20015;-67
2022/08/26 10:11:51;;;;;;;8.32;2.92;;;24.50;66.30;;;;;;9175869;19;20048;-69
2022/08/26 10:15:01;;;;;;;9.45;2.83;;;24.50;66.20;;;;;;9175346;19;20014;-67
2022/08/26 10:18:15;;;;;;;10.93;3.40;;;24.50;66.20;;;;;;9175449;19;20014;-67
2022/08/26 10:21:25;;;;;;;10.40;2.80;;;24.50;66.40;;;;;;9175711;19;20033;-68
2022/08/26 10:24:34;;;;;;;10.93;2.47;;;24.50;66.30;;;;;;9179538;19;20360;-66
2022/08/26 10:27:46;;;;;;;12.43;2.42;;;24.50;66.30;;;;;;9177319;19;20027;-69
2022/08/26 10:31:02;;;;;;;8.23;2.55;;;24.50;66.30;;;;;;9182395;19;20042;-68
2022/08/26 10:34:11;;;;;;;13.95;2.67;;;24.50;66.20;;;;;;9181869;19;20479;-67
2022/08/26 10:37:21;;;;;;;8.15;2.30;;;24.40;66.20;;;;;;9181579;19;20487;-67
2022/08/26 10:40:30;;;;;;;12.57;2.90;;;24.40;66.10;;;;;;9180521;19;20029;-69
2022/08/26 10:43:39;;;;;;;12.65;2.30;;;24.40;66.10;;;;;;9179474;19;20094;-70
2022/08/26 10:46:49;;;;;;;13.18;2.97;;;24.40;66.10;;;;;;9181388;19;20017;-70
2022/08/26 10:50:00;;;;;;;7.70;2.38;;;24.40;66.10;;;;;;9181223;19;20501;-70
2022/08/26 10:53:15;;;;;;;9.90;2.22;;;24.30;66.70;;;;;;9181368;19;20085;-68
2022/08/26 10:56:31;;;;;;;9.75;2.45;;;24.40;66.10;;;;;;9181494;19;20025;-70
2022/08/26 10:59:48;;;;;;;7.75;1.77;;;24.40;66.10;;;;;;9180476;19;20010;-68
2022/08/26 11:03:00;;;;;;;6.45;1.63;;;24.40;66.00;;;;;;9177206;19;20102;-70
2022/08/26 11:06:26;;;;;;;15.65;2.10;;;24.40;66.00;;;;;;9179956;19;20010;-70
2022/08/26 11:09:47;;;;;;;10.50;1.50;;;24.50;66.00;;;;;;9180399;19;20025;-69
2022/08/26 11:12:59;;;;;;;4.90;1.42;;;24.50;66.10;;;;;;9178472;19;20023;-69
2022/08/26 11:16:04;;;;;;;18.58;2.30;;;24.50;66.00;;;;;;9180530;19;20014;-68
2022/08/26 11:19:11;;;;;;;4.97;1.67;;;24.50;65.90;;;;;;9180557;19;20021;-70
2022/08/26 11:22:30;;;;;;;12.43;1.98;;;24.50;65.80;;;;;;9180255;19;20022;-68
2022/08/26 11:25:35;;;;;;;9.85;1.80;;;24.50;65.80;;;;;;9179987;19;20025;-67
2022/08/26 11:28:43;;;;;;;7.18;1.60;;;24.60;65.70;;;;;;9177580;19;20023;-69
2022/08/26 11:31:56;;;;;;;7.57;1.55;;;24.50;65.70;;;;;;9180562;19;20025;-70
2022/08/26 11:35:03;;;;;;;10.52;2.85;;;24.50;65.60;;;;;;9180092;19;20018;-69
2022/08/26 11:38:23;;;;;;;6.18;1.60;;;24.60;65.50;;;;;;9179309;19;20480;-71
2022/08/26 11:41:30;;;;;;;4.82;1.50;;;24.60;65.50;;;;;;9176140;19;20029;-69
2022/08/26 11:44:42;;;;;;;4.90;1.30;;;24.60;66.10;;;;;;9177042;19;20025;-71
2022/08/26 11:47:53;;;;;;;7.53;2.00;;;24.60;65.50;;;;;;9178233;19;20060;-69
2022/08/26 11:51:00;;;;;;;8.40;1.48;;;24.60;65.40;;;;;;9177302;19;20026;-68
2022/08/26 11:54:17;;;;;;;5.38;1.50;;;24.60;65.40;;;;;;9175942;19;20056;-70
2022/08/26 11:57:46;;;;;;;9.07;1.73;;;24.60;65.40;;;;;;9176990;19;20464;-69
2022/08/26 12:00:54;;;;;;;8.30;1.98;;;24.60;65.30;;;;;;9173379;19;20472;-70
2022/08/26 12:04:00;;;;;;;9.18;1.58;;;24.70;65.30;;;;;;9173682;19;20337;-70
2022/08/26 12:07:07;;;;;;;16.77;2.25;;;24.70;65.30;;;;;;9173164;19;20018;-70
2022/08/26 12:10:28;;;;;;;7.28;1.88;;;24.70;65.20;;;;;;9171311;19;20357;-69
2022/08/26 12:13:34;;;;;;;5.88;1.17;;;24.60;65.70;;;;;;9175677;19;20668;-70
2022/08/26 12:16:42;;;;;;;7.88;2.50;;;24.60;65.00;;;;;;9182284;19;20048;-69
2022/08/26 12:19:47;;;;;;;7.65;1.63;;;24.60;65.10;;;;;;9179526;19;20018;-68
2022/08/26 12:22:52;;;;;;;5.47;1.88;;;24.60;65.00;;;;;;9182352;19;20018;-70
2022/08/26 12:26:10;;;;;;;9.68;1.90;;;24.60;65.10;;;;;;9187588;19;20003;-69
2022/08/26 12:29:26;;;;;;;6.20;1.77;;;24.60;65.00;;;;;;9181161;19;20480;-72
2022/08/26 12:32:33;;;;;;;9.88;1.90;;;24.60;65.00;;;;;;9184438;19;20021;-71
2022/08/26 12:35:40;;;;;;;7.80;1.92;;;24.60;65.00;;;;;;9180360;19;20014;-69
2022/08/26 12:38:45;;;;;;;9.13;1.55;;;24.60;65.60;;;;;;9183976;19;20479;-69
2022/08/26 12:41:55;;;;;;;8.77;1.48;;;24.60;64.90;;;;;;9183163;19;20018;-68
2022/08/26 12:45:02;;;;;;;6.57;1.30;;;24.60;64.90;;;;;;9180673;19;20500;-69
2022/08/26 12:48:09;;;;;;;10.30;2.20;;;24.60;64.90;;;;;;9181905;19;20011;-71
2022/08/26 12:51:23;;;;;;;11.23;1.70;;;24.60;64.90;;;;;;9182742;19;20021;-68
2022/08/26 12:54:57;;;;;;;;;;;24.60;65.00;;;;;;9183845;19;20375;-70
2022/08/26 12:58:22;;;;;;;7.45;2.03;;;24.60;64.80;;;;;;9182844;19;20343;-69
2022/08/26 13:01:27;;;;;;;7.72;1.58;;;24.60;64.90;;;;;;9180702;19;20060;-71
2022/08/26 13:04:38;;;;;;;8.93;2.20;;;24.50;64.80;;;;;;9178336;19;20023;-70
2022/08/26 13:07:43;;;;;;;10.10;2.35;;;24.60;64.90;;;;;;9182363;19;20117;-72
2022/08/26 13:11:02;;;;;;;11.15;1.52;;;24.50;64.90;;;;;;9183555;19;20470;-70
2022/08/26 13:14:12;;;;;;;10.02;1.58;;;24.50;64.90;;;;;;9182145;19;20037;-71
2022/08/26 13:17:28;;;;;;;9.52;2.00;;;24.50;65.00;;;;;;9182009;19;20054;-71
2022/08/26 13:20:34;;;;;;;8.82;1.80;;;24.40;65.00;;;;;;9183203;19;20006;-71
2022/08/26 13:23:39;;;;;;;7.38;1.75;;;24.30;65.00;;;;;;9182176;19;20018;-70
2022/08/26 13:26:50;;;;;;;5.22;1.50;;;24.30;65.10;;;;;;9175386;19;20077;-71
2022/08/26 13:29:59;;;;;;;7.32;1.50;;;24.30;65.20;;;;;;9182566;19;20010;-70
2022/08/26 13:33:04;;;;;;;8.98;2.00;;;24.20;65.10;;;;;;9181829;19;20021;-69
2022/08/26 13:36:10;;;;;;;12.80;1.70;;;24.20;65.20;;;;;;9180544;19;20015;-71
2022/08/26 13:39:16;;;;;;;10.63;1.58;;;24.20;65.20;;;;;;9180944;19;20026;-69
2022/08/26 13:42:21;;;;;;;8.27;1.40;;;24.20;65.30;;;;;;9181618;19;20456;-69
2022/08/26 13:45:29;;;;;;;6.38;1.55;;;24.10;65.30;;;;;;9177974;19;20020;-68
2022/08/26 13:48:34;;;;;;;6.22;1.40;;;24.00;65.30;;;;;;9180301;19;20018;-68
2022/08/26 13:51:41;;;;;;;10.60;1.95;;;24.00;65.30;;;;;;9175346;19;20078;-66
2022/08/26 13:54:46;;;;;;;7.00;1.60;;;23.90;65.40;;;;;;9179149;19;20017;-66
2022/08/26 13:57:51;;;;;;;7.10;1.80;;;23.90;65.40;;;;;;9180037;19;20019;-68
2022/08/26 14:00:59;;;;;;;5.05;1.70;;;23.90;65.50;;;;;;9178681;19;20026;-70
2022/08/26 14:04:05;;;;;;;7.90;1.77;;;23.90;65.60;;;;;;9175886;19;20014;-70
2022/08/26 14:07:10;;;;;;;5.25;1.95;;;23.80;65.60;;;;;;9177877;19;21014;-68
2022/08/26 14:10:15;;;;;;;13.80;2.50;;;23.80;65.70;;;;;;9177894;19;20086;-67
2022/08/26 14:13:21;;;;;;;7.32;1.35;;;23.80;65.70;;;;;;9177446;19;20590;-67
2022/08/26 14:16:33;;;;;;;6.25;1.30;;;23.80;65.70;;;;;;9175972;19;20022;-67
2022/08/26 14:19:38;;;;;;;4.60;1.35;;;23.80;65.70;;;;;;9178339;19;20451;-69
2022/08/26 14:22:45;;;;;;;6.70;1.40;;;23.80;65.70;;;;;;9177651;19;20078;-69
2022/08/26 14:26:09;;;;;;;9.15;1.55;;;23.80;66.30;;;;;;9172897;19;20014;-68
2022/08/26 14:29:31;;;;;;;;;;;23.90;65.60;;;;;;9174403;19;20026;-68
2022/08/26 14:32:41;;;;;;;4.68;1.25;;;23.90;65.50;;;;;;9178417;19;19914;-71
2022/08/26 14:35:46;;;;;;;4.13;1.50;;;23.90;65.50;;;;;;9177466;19;20018;-71
2022/08/26 14:38:54;;;;;;;8.25;1.90;;;23.90;65.60;;;;;;9175254;19;20022;-69
2022/08/26 14:41:59;;;;;;;6.28;1.27;;;23.90;65.60;;;;;;9176036;19;20018;-69
2022/08/26 14:45:10;;;;;;;7.80;1.63;;;23.90;65.60;;;;;;9176598;19;20010;-69
2022/08/26 14:48:18;;;;;;;7.97;1.65;;;23.90;65.60;;;;;;9176417;19;20007;-67
2022/08/26 14:51:23;;;;;;;6.95;1.33;;;23.90;65.60;;;;;;9175082;19;20010;-69
2022/08/26 14:54:28;;;;;;;12.30;1.60;;;23.90;65.60;;;;;;9174303;19;20014;-69
2022/08/26 14:57:33;;;;;;;4.30;1.40;;;23.90;65.70;;;;;;9172253;19;20082;-70
2022/08/26 15:00:38;;;;;;;8.27;1.27;;;23.90;65.60;;;;;;9175778;19;20022;-70
2022/08/26 15:03:46;;;;;;;6.50;1.63;;;23.90;65.60;;;;;;9177547;19;20022;-69
2022/08/26 15:06:52;;;;;;;4.55;1.40;;;23.90;65.60;;;;;;9172213;19;20378;-69
2022/08/26 15:09:57;;;;;;;4.97;1.50;;;23.90;65.60;;;;;;9174577;19;20021;-70
2022/08/26 15:13:02;;;;;;;6.43;1.77;;;23.90;65.60;;;;;;9174687;19;20021;-71
2022/08/26 15:16:07;;;;;;;3.90;1.27;;;23.90;65.60;;;;;;9174107;19;20023;-73
2022/08/26 15:19:15;;;;;;;5.25;1.58;;;23.90;65.60;;;;;;9167328;19;20018;-69
2022/08/26 15:22:20;;;;;;;3.15;1.17;;;23.90;65.50;;;;;;9166712;19;20022;-67
2022/08/26 15:25:25;;;;;;;4.30;1.30;;;23.90;65.50;;;;;;9172071;19;20026;-68
2022/08/26 15:28:30;;;;;;;8.82;1.42;;;23.90;65.50;;;;;;9174902;19;20025;-72
2022/08/26 15:31:36;;;;;;;7.13;1.15;;;23.90;65.50;;;;;;9180238;19;20022;-71
2022/08/26 15:34:44;;;;;;;4.72;1.30;;;23.90;65.50;;;;;;9175695;19;20022;-68
2022/08/26 15:37:49;;;;;;;5.40;1.25;;;23.90;65.50;;;;;;9175348;19;20784;-71
2022/08/26 15:41:14;;;;;;;4.22;1.05;;;23.90;65.50;;;;;;9174036;19;20018;-71
2022/08/26 15:44:19;;;;;;;2.17;1.15;;;23.90;65.50;;;;;;9176081;19;20017;-69
2022/08/26 15:47:24;;;;;;;6.03;1.30;;;23.90;65.50;;;;;;9174801;19;20021;-71
2022/08/26 15:50:34;;;;;;;3.97;0.95;;;23.90;65.50;;;;;;9183639;19;20014;-72
2022/08/26 15:53:39;;;;;;;7.95;1.08;;;23.80;65.40;;;;;;9184810;19;20014;-67
2022/08/26 15:56:47;;;;;;;11.55;1.67;;;23.80;65.40;;;;;;9186066;19;20022;-71
2022/08/26 15:59:52;;;;;;;7.68;1.15;;;23.80;65.40;;;;;;9187739;19;20025;-70
2022/08/26 16:02:57;;;;;;;4.82;1.27;;;23.80;65.40;;;;;;9188857;19;20018;-69
2022/08/26 16:06:05;;;;;;;6.40;1.08;;;23.80;65.40;;;;;;9186280;19;20024;-70
2022/08/26 16:09:11;;;;;;;7.18;1.25;;;23.70;65.40;;;;;;9188455;19;20011;-70
2022/08/26 16:12:16;;;;;;;3.95;0.80;;;23.70;65.40;;;;;;9188470;19;20029;-68
2022/08/26 16:15:21;;;;;;;5.28;1.10;;;23.70;65.50;;;;;;9188731;19;20021;-68